Huvudsida
METAR-TAF:

METAR-TAF

Flygplatser :

Deauville, Frankrike

latitud: 49-21-55N, longitud: 000-09-16E, höjd: 146 m

Aktuellt väderrapport

Denna rapport gjordes för 29 minuter sedan, klockan 14:00 UTC
Vind 17 kt från nordost, varierande mellan nord och ost/nordost
Temperatur 5°C
Fuktighet 70%
Tryck 1032 hPa
Sikt 10 km eller mer

METAR: LFRG 291400Z AUTO 04017KT 010V070 9999 FEW017/// SCT030/// BKN046/// ///TCU 05/M00 Q1032

Tid: 16:29 (14:29 UTC)


TAF: saknas

Aktuella väderrapporter och prognoser från 4000 flygplatser (METAR- och TAF-rapporter).

De tillgängliga stationerna syns som gula och röda prickar på kartan.

För musen över prickarna för att se namnen på stationerna.

Klicka sedan för att få väderrapporter och prognoser.

För att ändra kartan: Klicka på de gröna knapparna med ett svart kors på för att zooma in; den gröna knappen med ett streck på för att zooma ut; eller på de gröna pilarna för angränsande kartor.


METAR-TAF: